Time;durP1;ratioP1;P1;durP2;ratioP2;P2;SDS_P1;SDS_P2;PMS_P1;PMS_P2;Temp;Humidity;BMP_temperature;BMP_pressure;BME280_temperature;BME280_humidity;BME280_pressure;Samples;Min_cycle;Max_cycle;Signal;HPM_P1;HPM_P2
2023/12/21 00:02:11;;;;;;;9.27;5.55;;;2.00;99.90;;;;;;4954642;29;20035;-81
2023/12/21 00:04:36;;;;;;;10.40;5.68;;;2.00;99.90;;;;;;4956014;29;20070;-81
2023/12/21 00:07:02;;;;;;;10.43;5.45;;;2.00;99.90;;;;;;4955790;29;20035;-81
2023/12/21 00:09:28;;;;;;;8.43;5.28;;;2.00;99.90;;;;;;4955263;29;20023;-81
2023/12/21 00:11:54;;;;;;;5.95;4.13;;;1.90;99.90;;;;;;4941251;29;20026;-82
2023/12/21 00:14:20;;;;;;;7.68;5.13;;;2.00;99.90;;;;;;4954880;29;20024;-81
2023/12/21 00:16:46;;;;;;;6.43;4.47;;;2.00;99.90;;;;;;4954652;29;20489;-82
2023/12/21 00:19:12;;;;;;;5.00;3.95;;;2.00;99.90;;;;;;4955718;29;20027;-84
2023/12/21 00:21:38;;;;;;;5.65;4.07;;;2.10;99.90;;;;;;4933022;29;20129;-84
2023/12/21 00:24:04;;;;;;;6.40;4.53;;;2.10;99.90;;;;;;4958384;28;20062;-83
2023/12/21 00:26:29;;;;;;;7.40;4.13;;;2.10;99.90;;;;;;4962594;28;20074;-83
2023/12/21 00:28:55;;;;;;;5.68;4.05;;;2.10;99.90;;;;;;4939434;28;20027;-83
2023/12/21 00:31:21;;;;;;;8.07;4.63;;;2.10;99.90;;;;;;4964996;28;20485;-84
2023/12/21 00:33:47;;;;;;;7.07;4.30;;;2.10;99.90;;;;;;4953876;28;20434;-83
2023/12/21 00:36:16;;;;;;;7.18;4.45;;;2.10;99.90;;;;;;4954222;28;20473;-82
2023/12/21 00:38:42;;;;;;;6.18;4.15;;;2.20;99.90;;;;;;4958590;28;20039;-81
2023/12/21 00:41:08;;;;;;;6.13;3.95;;;2.10;99.90;;;;;;4960320;29;20024;-82
2023/12/21 00:43:34;;;;;;;7.10;4.30;;;2.20;99.90;;;;;;4945562;28;20443;-82
2023/12/21 00:46:00;;;;;;;6.32;4.25;;;2.20;99.90;;;;;;4953990;29;20393;-82
2023/12/21 00:48:26;;;;;;;6.28;4.68;;;2.30;99.90;;;;;;4954220;29;20042;-83
2023/12/21 00:50:52;;;;;;;6.25;5.00;;;2.30;99.90;;;;;;4964040;29;20024;-83
2023/12/21 00:53:19;;;;;;;7.32;4.47;;;2.30;99.90;;;;;;4974674;29;20031;-83
2023/12/21 00:55:45;;;;;;;6.67;4.33;;;2.30;99.90;;;;;;4954258;29;20050;-83
2023/12/21 00:58:11;;;;;;;5.82;4.57;;;2.30;99.90;;;;;;4953422;29;20086;-82
2023/12/21 01:00:37;;;;;;;8.45;4.88;;;2.30;99.90;;;;;;4954771;29;20055;-83
2023/12/21 01:03:03;;;;;;;6.95;3.80;;;2.30;99.90;;;;;;4954457;28;20024;-83
2023/12/21 01:05:29;;;;;;;6.07;4.45;;;2.20;99.90;;;;;;4966001;29;20028;-82
2023/12/21 01:07:55;;;;;;;5.97;4.32;;;2.10;99.90;;;;;;4966395;29;20069;-82
2023/12/21 01:10:20;;;;;;;5.20;3.80;;;2.10;99.90;;;;;;4955960;29;20043;-82
2023/12/21 01:12:46;;;;;;;5.20;3.70;;;2.00;99.90;;;;;;4953777;29;20104;-84
2023/12/21 01:15:12;;;;;;;5.80;3.55;;;2.00;99.90;;;;;;4936049;29;20103;-81
2023/12/21 01:17:38;;;;;;;6.03;3.85;;;1.90;99.90;;;;;;4942679;28;20063;-81
2023/12/21 01:20:05;;;;;;;6.95;4.03;;;1.90;99.90;;;;;;4933782;29;20027;-81
2023/12/21 01:22:31;;;;;;;3.60;2.70;;;1.90;99.90;;;;;;4954722;29;20030;-81
2023/12/21 01:24:57;;;;;;;5.45;3.67;;;2.00;99.90;;;;;;4953741;29;20023;-82
2023/12/21 01:27:23;;;;;;;4.40;2.88;;;1.90;99.90;;;;;;4940094;29;20038;-81
2023/12/21 01:29:49;;;;;;;5.47;3.30;;;1.90;99.90;;;;;;4957857;28;20027;-81
2023/12/21 01:32:15;;;;;;;5.43;2.92;;;1.80;99.90;;;;;;4953414;29;20038;-80
2023/12/21 01:34:41;;;;;;;8.13;3.30;;;1.80;99.90;;;;;;4953100;29;20097;-81
2023/12/21 01:37:06;;;;;;;3.70;2.72;;;1.90;99.90;;;;;;4935666;29;20508;-82
2023/12/21 01:39:32;;;;;;;4.07;2.67;;;1.80;99.90;;;;;;4953098;29;20437;-81
2023/12/21 01:41:58;;;;;;;3.63;2.72;;;1.90;99.90;;;;;;4953034;29;20426;-81
2023/12/21 01:44:24;;;;;;;6.88;3.05;;;1.90;99.90;;;;;;4953076;29;20428;-82
2023/12/21 01:46:50;;;;;;;4.18;2.88;;;2.00;99.90;;;;;;4952021;29;20023;-82
2023/12/21 01:49:16;;;;;;;4.22;2.97;;;1.90;99.90;;;;;;4953074;28;20035;-82
2023/12/21 01:51:42;;;;;;;4.50;3.15;;;2.00;99.90;;;;;;4955922;29;20024;-81
2023/12/21 01:54:08;;;;;;;3.47;2.63;;;2.00;99.90;;;;;;4956758;29;20366;-81
2023/12/21 01:56:34;;;;;;;4.78;2.83;;;2.00;99.90;;;;;;4955043;29;20045;-81
2023/12/21 01:59:01;;;;;;;4.68;3.20;;;2.10;99.90;;;;;;4945378;29;20545;-81
2023/12/21 02:01:27;;;;;;;4.50;2.88;;;2.10;99.90;;;;;;4954726;29;20432;-82
2023/12/21 02:03:56;;;;;;;3.75;3.30;;;2.10;99.90;;;;;;4956858;29;20079;-82
2023/12/21 02:06:22;;;;;;;5.35;3.67;;;2.10;99.90;;;;;;4956517;29;20027;-81
2023/12/21 02:08:48;;;;;;;4.38;2.95;;;2.10;99.90;;;;;;4956452;29;20434;-82
2023/12/21 02:11:14;;;;;;;5.47;2.90;;;2.10;99.90;;;;;;4956048;29;20031;-81
2023/12/21 02:13:40;;;;;;;5.38;3.38;;;2.00;99.90;;;;;;4939193;29;20078;-82
2023/12/21 02:16:14;;;;;;;3.97;2.90;;;2.00;99.90;;;;;;4956789;29;20432;-83
2023/12/21 02:18:41;;;;;;;3.83;2.97;;;2.00;99.90;;;;;;4958190;29;20037;-82
2023/12/21 02:21:07;;;;;;;6.28;3.20;;;2.00;99.90;;;;;;4956008;29;20027;-80
2023/12/21 02:23:37;;;;;;;5.07;3.72;;;1.90;99.90;;;;;;4939049;29;20397;-79
2023/12/21 02:26:03;;;;;;;5.60;3.63;;;2.00;99.90;;;;;;4946275;29;20051;-80
2023/12/21 02:28:29;;;;;;;4.22;3.20;;;2.10;99.90;;;;;;4950340;28;20019;-79
2023/12/21 02:30:55;;;;;;;4.05;3.15;;;2.10;99.90;;;;;;4943816;29;20310;-80
2023/12/21 02:33:21;;;;;;;4.47;3.30;;;2.00;99.90;;;;;;4942361;29;20103;-79
2023/12/21 02:35:47;;;;;;;2.90;2.45;;;2.00;99.90;;;;;;4956414;29;20031;-80
2023/12/21 02:38:13;;;;;;;3.70;3.25;;;2.00;99.90;;;;;;4956146;29;20524;-80
2023/12/21 02:40:39;;;;;;;5.60;3.58;;;1.90;99.90;;;;;;4962353;29;20026;-80
2023/12/21 02:43:04;;;;;;;4.25;2.92;;;1.90;99.90;;;;;;4956215;29;20027;-80
2023/12/21 02:45:30;;;;;;;4.32;3.25;;;1.80;99.90;;;;;;4954701;29;20044;-80
2023/12/21 02:47:56;;;;;;;4.43;2.83;;;1.80;99.90;;;;;;4938006;29;20063;-80
2023/12/21 02:50:22;;;;;;;4.82;2.83;;;1.70;99.90;;;;;;4955679;29;20028;-80
2023/12/21 02:52:48;;;;;;;7.80;4.00;;;1.80;99.90;;;;;;4955159;29;20024;-79
2023/12/21 02:55:15;;;;;;;5.20;2.92;;;1.70;99.90;;;;;;4938139;29;20528;-81
2023/12/21 02:57:40;;;;;;;3.50;3.05;;;1.70;99.90;;;;;;4924601;29;20071;-81
2023/12/21 03:00:07;;;;;;;4.43;3.22;;;1.80;99.90;;;;;;4955787;29;20489;-82
2023/12/21 03:02:33;;;;;;;5.88;3.10;;;1.80;99.90;;;;;;4962617;28;20103;-81
2023/12/21 03:04:59;;;;;;;5.47;2.75;;;1.70;99.90;;;;;;4958328;29;20557;-81
2023/12/21 03:07:25;;;;;;;2.83;2.55;;;1.50;99.90;;;;;;4955641;29;20041;-79
2023/12/21 03:09:51;;;;;;;4.05;2.92;;;1.50;99.90;;;;;;4955270;29;20046;-82
2023/12/21 03:12:17;;;;;;;3.65;2.97;;;1.40;99.90;;;;;;4956336;29;20079;-81
2023/12/21 03:14:42;;;;;;;6.28;2.60;;;1.40;99.90;;;;;;4962002;29;20027;-80
2023/12/21 03:17:08;;;;;;;5.45;2.58;;;1.30;99.90;;;;;;4957603;29;20434;-81
2023/12/21 03:19:34;;;;;;;4.25;3.33;;;1.30;99.90;;;;;;4955541;29;20030;-80
2023/12/21 03:22:00;;;;;;;3.95;2.47;;;1.30;99.90;;;;;;4938024;29;20031;-80
2023/12/21 03:24:26;;;;;;;5.30;2.88;;;1.30;99.90;;;;;;4937907;29;20063;-82
2023/12/21 03:26:52;;;;;;;4.20;2.45;;;1.30;99.90;;;;;;4955532;29;20035;-80
2023/12/21 03:29:18;;;;;;;3.35;2.75;;;1.30;99.90;;;;;;4955090;29;20015;-79
2023/12/21 03:31:44;;;;;;;5.50;3.20;;;1.20;99.90;;;;;;4936431;28;20027;-82
2023/12/21 03:34:09;;;;;;;6.47;2.75;;;1.20;99.90;;;;;;4956567;28;20038;-82
2023/12/21 03:36:35;;;;;;;6.90;3.20;;;1.30;99.90;;;;;;4944572;29;20043;-81
2023/12/21 03:39:01;;;;;;;4.40;2.60;;;1.30;99.90;;;;;;4966626;28;20026;-82
2023/12/21 03:41:27;;;;;;;3.63;2.88;;;1.40;99.90;;;;;;4958744;28;20078;-83
2023/12/21 03:43:53;;;;;;;3.90;2.75;;;1.40;99.90;;;;;;4969278;28;20499;-83
2023/12/21 03:46:19;;;;;;;5.35;3.35;;;1.40;99.90;;;;;;4964760;28;20035;-80
2023/12/21 03:48:45;;;;;;;6.68;3.13;;;1.40;99.90;;;;;;4970864;28;20027;-82
2023/12/21 03:51:11;;;;;;;7.05;2.85;;;1.50;99.90;;;;;;4937713;29;20031;-84
2023/12/21 03:53:36;;;;;;;4.13;2.70;;;1.60;99.90;;;;;;4955315;28;20030;-82
2023/12/21 03:56:02;;;;;;;9.98;3.45;;;1.60;99.90;;;;;;4954610;28;20450;-83
2023/12/21 03:58:28;;;;;;;3.90;2.47;;;1.60;99.90;;;;;;4952405;28;20074;-82
2023/12/21 04:00:54;;;;;;;4.90;2.70;;;1.60;99.90;;;;;;4943063;28;20481;-82
2023/12/21 04:03:20;;;;;;;4.22;2.92;;;1.60;99.90;;;;;;4954700;28;20050;-80
2023/12/21 04:05:46;;;;;;;6.80;3.05;;;1.70;99.90;;;;;;4966097;28;20081;-81
2023/12/21 04:08:12;;;;;;;4.30;3.25;;;1.70;99.90;;;;;;4963272;28;20042;-83
2023/12/21 04:10:38;;;;;;;4.65;2.80;;;1.70;99.90;;;;;;4971957;28;20061;-81
2023/12/21 04:13:04;;;;;;;2.70;2.30;;;1.70;99.90;;;;;;4937303;28;20040;-81
2023/12/21 04:15:30;;;;;;;5.78;2.90;;;1.60;99.90;;;;;;4972529;28;20031;-82
2023/12/21 04:17:56;;;;;;;4.47;2.50;;;1.60;99.90;;;;;;4954079;28;20050;-83
2023/12/21 04:20:22;;;;;;;5.20;2.45;;;1.70;99.90;;;;;;4962795;28;20030;-82
2023/12/21 04:22:47;;;;;;;4.03;2.53;;;1.70;99.90;;;;;;4936553;29;20027;-83
2023/12/21 04:25:13;;;;;;;2.33;1.85;;;1.70;99.90;;;;;;4953332;28;20031;-84
2023/12/21 04:27:39;;;;;;;3.13;2.22;;;1.70;99.90;;;;;;4941618;29;20055;-86
2023/12/21 04:30:06;;;;;;;3.00;1.90;;;1.80;99.90;;;;;;4958983;28;20037;-85
2023/12/21 04:32:32;;;;;;;5.05;2.53;;;1.80;99.90;;;;;;4954921;29;20536;-80
2023/12/21 04:34:57;;;;;;;4.82;2.15;;;1.80;99.90;;;;;;4957705;28;20109;-84
2023/12/21 04:37:23;;;;;;;3.72;2.50;;;1.80;99.90;;;;;;4963040;28;20036;-83
2023/12/21 04:39:49;;;;;;;3.88;2.45;;;1.80;99.90;;;;;;4970050;28;20031;-84
2023/12/21 04:42:15;;;;;;;3.78;3.00;;;1.90;99.90;;;;;;4959991;28;20374;-84
2023/12/21 04:44:41;;;;;;;3.15;2.83;;;1.90;99.90;;;;;;4953794;28;20102;-85
2023/12/21 04:47:10;;;;;;;4.35;2.75;;;1.90;99.90;;;;;;4935129;29;20027;-85
2023/12/21 04:49:36;;;;;;;3.20;2.50;;;1.90;99.90;;;;;;4966915;28;20030;-85
2023/12/21 04:52:03;;;;;;;4.38;2.72;;;1.90;99.90;;;;;;4969984;28;20500;-85
2023/12/21 04:54:30;;;;;;;4.18;2.70;;;1.90;99.90;;;;;;4950823;28;20039;-84
2023/12/21 04:56:56;;;;;;;3.25;2.67;;;1.90;99.90;;;;;;4962027;28;20046;-83
2023/12/21 04:59:22;;;;;;;6.18;3.00;;;1.90;99.90;;;;;;4958778;28;20458;-83
2023/12/21 05:01:54;;;;;;;4.03;2.70;;;1.90;99.90;;;;;;4959426;28;20402;-84
2023/12/21 05:04:20;;;;;;;5.43;2.70;;;1.90;99.90;;;;;;4950811;28;20047;-84
2023/12/21 05:06:46;;;;;;;3.55;3.00;;;1.90;99.90;;;;;;4944515;28;20118;-83
2023/12/21 05:09:11;;;;;;;4.88;3.03;;;1.90;99.90;;;;;;4941875;29;20047;-83
2023/12/21 05:11:37;;;;;;;5.20;3.25;;;1.90;99.90;;;;;;4959758;28;20476;-84
2023/12/21 05:14:03;;;;;;;5.13;3.10;;;1.90;99.90;;;;;;4955576;29;20027;-84
2023/12/21 05:16:29;;;;;;;5.18;3.10;;;1.90;99.90;;;;;;4961107;28;20077;-84
2023/12/21 05:18:55;;;;;;;4.28;2.53;;;2.00;99.90;;;;;;4960803;28;20087;-82
2023/12/21 05:21:21;;;;;;;4.70;2.72;;;2.00;99.90;;;;;;4959596;28;20491;-85
2023/12/21 05:23:47;;;;;;;2.95;1.88;;;2.00;99.90;;;;;;4951202;28;20031;-90
2023/12/21 05:26:14;;;;;;;4.30;2.58;;;1.90;99.90;;;;;;4942345;28;20027;-86
2023/12/21 05:28:42;;;;;;;3.22;1.92;;;1.90;99.90;;;;;;4950381;29;20023;-84
2023/12/21 05:31:11;;;;;;;2.83;2.17;;;1.90;99.90;;;;;;4945454;28;20035;-84
2023/12/21 05:33:37;;;;;;;3.60;2.50;;;2.00;99.90;;;;;;4972831;28;20105;-86
2023/12/21 05:36:03;;;;;;;5.38;2.50;;;1.90;99.90;;;;;;4951479;29;20527;-86
2023/12/21 05:38:29;;;;;;;2.47;2.28;;;1.90;99.90;;;;;;4967407;29;20050;-86
2023/12/21 05:40:55;;;;;;;4.65;2.75;;;1.90;99.90;;;;;;4962805;29;20027;-86
2023/12/21 05:43:21;;;;;;;5.05;2.58;;;2.00;99.90;;;;;;4947168;29;20023;-85
2023/12/21 05:45:47;;;;;;;4.05;2.95;;;2.10;99.90;;;;;;4948924;29;20132;-86
2023/12/21 05:48:13;;;;;;;5.03;2.67;;;2.00;99.90;;;;;;4954459;29;20031;-85
2023/12/21 05:50:39;;;;;;;2.75;2.40;;;2.00;99.90;;;;;;4942834;29;20027;-85
2023/12/21 05:53:05;;;;;;;3.80;3.05;;;2.00;99.90;;;;;;4955276;28;20039;-87
2023/12/21 05:55:31;;;;;;;5.03;3.40;;;2.10;99.90;;;;;;4943387;29;20031;-86
2023/12/21 05:57:57;;;;;;;3.85;2.40;;;2.10;99.90;;;;;;4947157;29;20464;-88
2023/12/21 06:00:23;;;;;;;5.78;3.70;;;2.10;99.90;;;;;;4946211;29;20023;-88
2023/12/21 06:02:49;;;;;;;4.40;2.28;;;2.10;99.90;;;;;;4950029;28;20043;-88
2023/12/21 06:05:15;;;;;;;6.38;3.25;;;2.10;99.90;;;;;;4948866;29;20024;-87
2023/12/21 06:07:41;;;;;;;3.13;2.28;;;2.10;99.90;;;;;;4959793;28;20030;-86
2023/12/21 06:10:08;;;;;;;4.47;2.50;;;2.10;99.90;;;;;;4971425;29;20033;-85
2023/12/21 06:12:34;;;;;;;5.00;2.55;;;2.10;99.90;;;;;;4974801;28;20011;-88
2023/12/21 06:15:00;;;;;;;3.60;2.42;;;2.00;99.90;;;;;;4978157;29;20042;-84
2023/12/21 06:17:26;;;;;;;5.32;2.85;;;2.10;99.90;;;;;;4974516;28;20362;-86
2023/12/21 06:19:52;;;;;;;2.50;2.15;;;2.10;99.90;;;;;;4948764;28;20022;-86
2023/12/21 06:22:18;;;;;;;4.35;2.97;;;2.10;99.90;;;;;;4961415;28;20035;-87
2023/12/21 06:24:44;;;;;;;5.43;2.58;;;2.10;99.90;;;;;;4943575;29;20023;-85
2023/12/21 06:27:10;;;;;;;5.00;2.97;;;2.20;99.90;;;;;;4962155;28;20038;-86
2023/12/21 06:29:36;;;;;;;5.95;2.72;;;2.20;99.90;;;;;;4942285;29;20031;-86
2023/12/21 06:32:03;;;;;;;5.60;3.15;;;2.20;99.90;;;;;;4959556;28;20030;-87
2023/12/21 06:34:29;;;;;;;5.68;2.83;;;2.30;99.90;;;;;;4961195;28;20023;-88
2023/12/21 06:36:54;;;;;;;4.95;2.40;;;2.30;99.90;;;;;;4957278;28;20086;-88
2023/12/21 06:39:20;;;;;;;7.95;3.10;;;2.30;99.90;;;;;;4960595;28;20469;-87
2023/12/21 06:41:46;;;;;;;3.40;2.85;;;2.30;99.90;;;;;;4948819;29;20186;-89
2023/12/21 06:44:12;;;;;;;5.38;3.15;;;2.30;99.90;;;;;;4955625;28;20488;-84
2023/12/21 06:46:38;;;;;;;5.00;2.72;;;2.30;99.90;;;;;;4956840;28;20023;-85
2023/12/21 06:49:04;;;;;;;5.80;3.88;;;2.30;99.90;;;;;;4959270;28;20126;-85
2023/12/21 06:51:30;;;;;;;3.08;2.40;;;2.40;99.90;;;;;;4944059;29;20619;-83
2023/12/21 06:53:56;;;;;;;4.07;2.10;;;2.40;99.90;;;;;;4966262;28;20121;-83
2023/12/21 06:56:22;;;;;;;8.38;5.30;;;2.40;99.90;;;;;;4969181;28;20023;-82
2023/12/21 06:58:48;;;;;;;10.18;3.33;;;2.30;99.90;;;;;;4942771;29;20047;-84
2023/12/21 07:01:14;;;;;;;5.72;4.53;;;2.40;99.90;;;;;;4970703;28;20027;-82
2023/12/21 07:03:39;;;;;;;3.47;2.92;;;2.40;99.90;;;;;;4968787;28;20046;-81
2023/12/21 07:06:08;;;;;;;7.40;3.15;;;2.50;99.90;;;;;;4953909;28;20050;-84
2023/12/21 07:08:34;;;;;;;5.90;2.90;;;2.50;99.90;;;;;;4970476;28;20023;-88
2023/12/21 07:11:00;;;;;;;4.90;3.63;;;2.60;99.90;;;;;;4949035;29;20027;-89
2023/12/21 07:13:25;;;;;;;3.92;3.45;;;2.60;99.90;;;;;;4960651;28;20102;-89
2023/12/21 07:15:52;;;;;;;2.97;2.65;;;2.60;99.90;;;;;;4939743;29;20525;-87
2023/12/21 07:18:17;;;;;;;7.03;4.05;;;2.60;99.90;;;;;;4962019;28;20130;-90
2023/12/21 07:20:43;;;;;;;4.45;2.80;;;2.60;99.90;;;;;;4957460;29;20080;-90
2023/12/21 07:23:09;;;;;;;3.42;2.53;;;2.60;99.90;;;;;;4937617;29;20028;-89
2023/12/21 07:25:35;;;;;;;2.78;2.50;;;2.60;99.90;;;;;;4960950;28;20085;-89
2023/12/21 07:28:01;;;;;;;7.45;2.80;;;2.50;99.90;;;;;;4956322;28;20035;-91
2023/12/21 07:30:26;;;;;;;3.55;2.60;;;2.50;99.90;;;;;;4942750;28;20047;-89
2023/12/21 07:32:52;;;;;;;18.73;15.45;;;2.50;99.90;;;;;;4946179;29;20508;-83
2023/12/21 07:35:18;;;;;;;3.10;2.30;;;2.50;99.90;;;;;;4939699;29;20477;-84
2023/12/21 07:37:44;;;;;;;7.75;6.35;;;2.50;99.90;;;;;;4938523;29;20036;-86
2023/12/21 07:40:10;;;;;;;5.13;4.10;;;2.40;99.90;;;;;;4964792;28;20070;-85
2023/12/21 07:42:38;;;;;;;8.20;3.13;;;2.40;99.90;;;;;;4977455;28;20039;-85
2023/12/21 07:45:05;;;;;;;6.85;3.60;;;2.40;99.90;;;;;;4970110;28;20029;-85
2023/12/21 07:47:31;;;;;;;9.10;3.25;;;2.40;99.90;;;;;;4969174;28;20142;-91
2023/12/21 07:49:57;;;;;;;5.25;3.70;;;2.40;99.90;;;;;;4944741;29;20051;-86
2023/12/21 07:52:23;;;;;;;3.70;3.25;;;2.40;99.90;;;;;;4938704;28;20445;-86
2023/12/21 07:54:49;;;;;;;5.25;3.30;;;2.40;99.90;;;;;;4940386;29;20377;-85
2023/12/21 07:57:15;;;;;;;6.25;4.50;;;2.50;99.90;;;;;;4940134;29;20039;-82
2023/12/21 07:59:41;;;;;;;21.55;13.68;;;2.50;99.90;;;;;;4970597;28;20450;-85
2023/12/21 08:02:07;;;;;;;6.30;4.35;;;2.50;99.90;;;;;;4953887;28;20050;-86
2023/12/21 08:04:32;;;;;;;6.85;4.82;;;2.50;99.90;;;;;;4955059;28;20043;-85
2023/12/21 08:06:59;;;;;;;4.97;4.43;;;2.50;99.90;;;;;;4942119;28;20110;-83
2023/12/21 08:09:25;;;;;;;7.43;4.50;;;2.50;99.90;;;;;;4962619;28;20058;-82
2023/12/21 08:11:50;;;;;;;5.93;4.25;;;2.60;99.90;;;;;;4953604;29;20027;-83
2023/12/21 08:14:16;;;;;;;6.43;3.47;;;2.50;99.90;;;;;;4957442;28;20042;-87
2023/12/21 08:16:42;;;;;;;5.13;3.95;;;2.50;99.90;;;;;;4963475;29;20035;-86
2023/12/21 08:19:08;;;;;;;13.93;10.68;;;2.50;99.90;;;;;;4967743;28;20030;-88
2023/12/21 08:21:34;;;;;;;7.18;4.03;;;2.60;99.90;;;;;;4971084;28;20062;-86
2023/12/21 08:24:01;;;;;;;4.60;3.60;;;2.60;99.90;;;;;;4965812;28;20027;-85
2023/12/21 08:26:27;;;;;;;9.52;4.35;;;2.70;99.90;;;;;;4958820;28;20023;-86
2023/12/21 08:28:53;;;;;;;5.47;3.20;;;2.70;99.90;;;;;;4957281;28;20039;-86
2023/12/21 08:31:23;;;;;;;4.07;3.35;;;2.70;99.90;;;;;;4949879;28;20023;-88
2023/12/21 08:33:49;;;;;;;6.20;3.47;;;2.70;99.90;;;;;;4952507;28;20019;-86
2023/12/21 08:36:15;;;;;;;6.47;4.80;;;2.70;99.90;;;;;;4964300;28;20038;-88
2023/12/21 08:38:41;;;;;;;10.98;5.72;;;2.70;99.90;;;;;;4959887;29;20125;-86
2023/12/21 08:41:07;;;;;;;5.57;4.22;;;2.70;99.90;;;;;;4961786;28;20074;-87
2023/12/21 08:43:35;;;;;;;11.05;7.55;;;2.70;99.90;;;;;;4953920;28;20031;-88
2023/12/21 08:46:01;;;;;;;4.63;3.40;;;2.70;99.90;;;;;;4980099;28;20027;-87
2023/12/21 08:48:27;;;;;;;5.40;3.85;;;2.70;99.90;;;;;;4978473;28;20026;-89
2023/12/21 08:50:53;;;;;;;5.50;3.35;;;2.70;99.90;;;;;;4954420;28;21760;-91
2023/12/21 08:53:19;;;;;;;4.97;3.58;;;2.70;99.90;;;;;;4972094;28;20058;-85
2023/12/21 08:55:45;;;;;;;6.63;4.00;;;2.70;99.90;;;;;;4962175;28;20527;-86
2023/12/21 08:58:11;;;;;;;4.05;3.08;;;2.80;99.90;;;;;;4954189;28;20034;-85
2023/12/21 09:00:37;;;;;;;4.75;3.30;;;2.80;99.90;;;;;;4975449;28;20097;-82
2023/12/21 09:03:03;;;;;;;5.70;3.58;;;2.80;99.90;;;;;;4959931;28;20141;-82
2023/12/21 09:05:29;;;;;;;8.68;6.20;;;2.80;99.90;;;;;;4966874;28;20031;-83
2023/12/21 09:07:55;;;;;;;5.00;3.60;;;2.90;99.90;;;;;;4948872;28;20944;-81
2023/12/21 09:10:21;;;;;;;4.35;3.20;;;3.00;99.90;;;;;;4945959;29;20499;-87
2023/12/21 09:12:47;;;;;;;3.00;2.63;;;3.00;99.90;;;;;;4956691;29;20114;-81
2023/12/21 09:15:13;;;;;;;5.35;3.85;;;3.00;99.90;;;;;;4961743;28;20068;-81
2023/12/21 09:17:40;;;;;;;8.73;6.75;;;2.90;99.90;;;;;;4963528;28;20161;-81
2023/12/21 09:20:08;;;;;;;9.05;5.43;;;3.00;99.90;;;;;;4973173;28;20082;-79
2023/12/21 09:22:34;;;;;;;8.48;3.95;;;3.00;99.90;;;;;;4970652;28;20035;-81
2023/12/21 09:25:02;;;;;;;3.92;3.00;;;3.00;99.90;;;;;;4968936;28;20130;-80
2023/12/21 09:27:28;;;;;;;5.15;3.38;;;3.10;99.90;;;;;;4975471;28;20027;-80
2023/12/21 09:29:54;;;;;;;3.70;2.72;;;3.00;99.90;;;;;;4962465;28;20030;-80
2023/12/21 09:32:20;;;;;;;5.53;2.95;;;3.00;99.90;;;;;;4956840;28;20062;-80
2023/12/21 09:34:49;;;;;;;5.75;2.65;;;3.00;99.90;;;;;;4962303;28;20026;-83
2023/12/21 09:37:16;;;;;;;3.10;2.53;;;3.00;99.90;;;;;;4956638;28;20071;-83
2023/12/21 09:39:42;;;;;;;2.60;2.35;;;3.00;99.90;;;;;;4956141;29;20488;-83
2023/12/21 09:42:14;;;;;;;4.13;2.17;;;2.90;99.90;;;;;;4940936;29;20079;-83
2023/12/21 09:44:42;;;;;;;5.20;2.33;;;2.90;99.90;;;;;;4940681;29;20097;-81
2023/12/21 09:47:11;;;;;;;3.60;2.63;;;2.80;99.90;;;;;;4953409;28;20086;-80
2023/12/21 09:49:37;;;;;;;3.88;2.85;;;2.80;99.90;;;;;;4959963;28;20019;-81
2023/12/21 09:52:07;;;;;;;4.32;2.80;;;2.90;99.90;;;;;;4944894;28;20030;-82
2023/12/21 09:54:34;;;;;;;2.55;2.03;;;3.00;99.90;;;;;;4964063;28;20084;-80
2023/12/21 09:57:02;;;;;;;3.90;2.72;;;3.00;99.90;;;;;;4961465;28;20131;-88
2023/12/21 09:59:31;;;;;;;4.60;2.97;;;2.90;99.90;;;;;;4960451;28;20026;-81
2023/12/21 10:01:57;;;;;;;8.10;4.50;;;2.90;99.90;;;;;;4940026;29;20031;-83
2023/12/21 10:04:23;;;;;;;3.65;2.53;;;2.80;99.90;;;;;;4968783;28;20133;-83
2023/12/21 10:06:49;;;;;;;4.00;2.38;;;2.80;99.90;;;;;;4974644;28;20058;-82
2023/12/21 10:09:17;;;;;;;5.85;1.90;;;2.70;99.90;;;;;;4962848;28;20027;-82
2023/12/21 10:11:46;;;;;;;2.95;2.20;;;2.60;99.90;;;;;;4962574;28;20062;-83
2023/12/21 10:14:16;;;;;;;2.33;1.88;;;2.60;99.90;;;;;;4965986;28;20027;-82
2023/12/21 10:16:42;;;;;;;4.40;2.22;;;2.60;99.90;;;;;;4970135;28;20026;-86
2023/12/21 10:19:12;;;;;;;4.00;2.45;;;2.50;99.90;;;;;;4967980;28;20027;-87
2023/12/21 10:21:40;;;;;;;6.85;2.85;;;2.60;99.90;;;;;;4967211;28;20403;-83
2023/12/21 10:24:07;;;;;;;3.92;3.40;;;2.60;99.90;;;;;;4960588;28;20424;-84
2023/12/21 10:26:43;;;;;;;4.03;2.30;;;2.60;99.90;;;;;;4960517;28;20050;-81
2023/12/21 10:29:09;;;;;;;5.57;2.80;;;2.60;99.90;;;;;;4956790;28;20114;-82
2023/12/21 10:31:35;;;;;;;7.03;3.00;;;2.60;99.90;;;;;;4965845;28;20050;-83
2023/12/21 10:34:02;;;;;;;4.82;3.22;;;2.70;99.90;;;;;;4962565;28;20082;-84
2023/12/21 10:36:28;;;;;;;3.90;1.88;;;2.70;99.90;;;;;;4965614;28;20054;-83
2023/12/21 10:38:54;;;;;;;4.55;2.10;;;2.70;99.90;;;;;;4957192;29;20034;-84
2023/12/21 10:41:21;;;;;;;5.38;2.83;;;2.60;99.90;;;;;;4962298;28;20019;-83
2023/12/21 10:43:46;;;;;;;3.97;2.97;;;2.50;99.90;;;;;;4959320;28;20123;-84
2023/12/21 10:46:17;;;;;;;6.38;2.25;;;2.50;99.90;;;;;;4949252;29;20032;-85
2023/12/21 10:48:44;;;;;;;3.55;2.63;;;2.50;99.90;;;;;;4951971;28;20020;-88
2023/12/21 10:51:11;;;;;;;19.95;3.63;;;2.60;99.90;;;;;;4948654;29;20075;-85
2023/12/21 10:53:37;;;;;;;5.53;2.88;;;2.60;99.90;;;;;;4981301;28;20027;-83
2023/12/21 10:56:04;;;;;;;4.25;3.75;;;2.70;99.90;;;;;;4982733;28;20022;-83
2023/12/21 10:58:31;;;;;;;6.97;3.70;;;2.70;99.90;;;;;;4970226;28;20035;-87
2023/12/21 11:00:58;;;;;;;5.57;2.55;;;2.60;99.90;;;;;;4953009;28;20031;-83
2023/12/21 11:03:25;;;;;;;3.90;2.40;;;2.60;99.90;;;;;;4956219;28;20038;-82
2023/12/21 11:05:52;;;;;;;3.80;2.15;;;2.60;99.90;;;;;;4973075;28;20031;-82
2023/12/21 11:08:19;;;;;;;4.57;3.70;;;2.60;99.90;;;;;;4966111;28;20023;-81
2023/12/21 11:10:46;;;;;;;7.32;3.30;;;2.60;99.90;;;;;;4954056;28;20057;-82
2023/12/21 11:13:12;;;;;;;4.25;3.05;;;2.60;99.90;;;;;;4953854;28;20039;-85
2023/12/21 11:15:38;;;;;;;5.05;3.10;;;2.70;99.90;;;;;;4959005;29;20099;-84
2023/12/21 11:18:14;;;;;;;3.72;2.30;;;2.90;99.90;;;;;;4948279;28;20146;-84
2023/12/21 11:20:45;;;;;;;11.07;6.78;;;3.00;99.90;;;;;;4961893;28;20461;-81
2023/12/21 11:23:11;;;;;;;4.47;2.83;;;2.90;99.90;;;;;;4963255;28;20042;-83
2023/12/21 11:25:37;;;;;;;6.95;4.75;;;2.80;99.90;;;;;;4949175;29;20023;-84
2023/12/21 11:28:04;;;;;;;6.65;4.10;;;2.90;99.90;;;;;;4955580;28;20046;-83
2023/12/21 11:30:32;;;;;;;5.93;3.42;;;2.80;99.90;;;;;;4951657;28;20449;-85
2023/12/21 11:33:07;;;;;;;21.73;18.08;;;2.80;99.90;;;;;;4955207;29;20050;-85
2023/12/21 11:35:33;;;;;;;4.43;3.40;;;2.90;99.90;;;;;;4968070;28;20026;-84
2023/12/21 11:38:00;;;;;;;5.05;3.35;;;3.00;99.90;;;;;;4957027;28;20086;-82
2023/12/21 11:40:26;;;;;;;8.27;4.15;;;3.00;99.90;;;;;;4948339;29;20072;-81
2023/12/21 11:42:56;;;;;;;4.30;3.03;;;3.00;99.90;;;;;;4967119;29;20035;-81
2023/12/21 11:45:31;;;;;;;6.70;3.75;;;3.00;99.90;;;;;;5102482;27;1545241;-82
2023/12/21 11:48:00;;;;;;;7.43;4.25;;;3.00;99.90;;;;;;5124811;28;20099;-83
2023/12/21 11:50:29;;;;;;;6.55;4.32;;;3.00;99.90;;;;;;5118301;28;20027;-84
2023/12/21 11:53:09;;;;;;;9.55;4.75;;;3.00;99.90;;;;;;5127167;28;20065;-82
2023/12/21 11:55:41;;;;;;;8.55;5.13;;;2.90;99.90;;;;;;5121684;28;20055;-85
2023/12/21 11:58:21;;;;;;;7.40;4.78;;;2.90;99.90;;;;;;5133155;28;20014;-81
2023/12/21 12:00:50;;;;;;;6.30;3.83;;;2.90;99.90;;;;;;5130437;28;20500;-83
2023/12/21 12:03:20;;;;;;;10.05;4.88;;;2.90;99.90;;;;;;5118245;28;20027;-87
2023/12/21 12:05:53;;;;;;;5.70;3.70;;;2.90;99.90;;;;;;5121798;28;20046;-83
2023/12/21 12:08:23;;;;;;;8.88;4.03;;;2.90;99.90;;;;;;5114362;28;20456;-82
2023/12/21 12:10:53;;;;;;;9.18;6.50;;;2.90;99.90;;;;;;5119108;28;20024;-83
2023/12/21 12:13:25;;;;;;;8.38;4.88;;;3.00;99.90;;;;;;5111345;28;20022;-83
2023/12/21 12:15:52;;;;;;;8.82;5.05;;;3.00;99.90;;;;;;5118987;28;20445;-82
2023/12/21 12:18:22;;;;;;;11.15;7.00;;;3.00;99.90;;;;;;5109836;28;20059;-83
2023/12/21 12:20:48;;;;;;;6.30;4.60;;;3.10;99.90;;;;;;5113028;28;20046;-83
2023/12/21 12:23:15;;;;;;;5.15;3.80;;;3.00;99.90;;;;;;5127954;28;20016;-82
2023/12/21 12:25:42;;;;;;;4.65;3.38;;;2.90;99.90;;;;;;5125139;28;20452;-81
2023/12/21 12:28:09;;;;;;;4.50;3.08;;;2.80;99.90;;;;;;5116821;27;20007;-81
2023/12/21 12:30:35;;;;;;;6.40;3.72;;;2.70;99.90;;;;;;5115250;28;20028;-81
2023/12/21 12:33:05;;;;;;;7.88;4.18;;;2.60;99.90;;;;;;5126197;27;20047;-85
2023/12/21 12:35:37;;;;;;;6.90;4.25;;;2.60;99.90;;;;;;5114105;28;20053;-88
2023/12/21 12:38:09;;;;;;;5.53;4.63;;;2.60;99.90;;;;;;5123806;28;20019;-88
2023/12/21 12:40:35;;;;;;;6.38;3.80;;;2.60;99.90;;;;;;5112985;28;20027;-89
2023/12/21 12:43:01;;;;;;;8.15;5.72;;;2.60;99.90;;;;;;5111570;28;20020;-88
2023/12/21 12:45:27;;;;;;;7.25;4.90;;;2.60;99.90;;;;;;5108068;28;20044;-82
2023/12/21 12:47:54;;;;;;;6.95;3.42;;;2.60;99.90;;;;;;5112330;28;20498;-80
2023/12/21 12:50:23;;;;;;;6.80;3.97;;;2.50;99.90;;;;;;5126055;28;20027;-82
2023/12/21 12:52:49;;;;;;;6.47;4.68;;;2.50;99.90;;;;;;5118178;28;20035;-82